sensor_id;sensor_type;location;lat;lon;timestamp;temperature;humidity
23283;DHT22;11810;51.178;3.878;2023-06-04T00:02:10;14.60;99.90
23283;DHT22;11810;51.178;3.878;2023-06-04T00:04:36;14.50;99.90
23283;DHT22;11810;51.178;3.878;2023-06-04T00:07:02;14.40;99.90
23283;DHT22;11810;51.178;3.878;2023-06-04T00:09:28;14.50;99.90
23283;DHT22;11810;51.178;3.878;2023-06-04T00:11:55;14.40;99.90
23283;DHT22;11810;51.178;3.878;2023-06-04T00:14:21;14.40;99.90
23283;DHT22;11810;51.178;3.878;2023-06-04T00:16:47;14.50;99.90
23283;DHT22;11810;51.178;3.878;2023-06-04T00:19:13;14.50;99.90
23283;DHT22;11810;51.178;3.878;2023-06-04T00:21:39;14.40;99.90
23283;DHT22;11810;51.178;3.878;2023-06-04T00:24:05;14.20;99.90
23283;DHT22;11810;51.178;3.878;2023-06-04T00:26:31;14.20;99.90
23283;DHT22;11810;51.178;3.878;2023-06-04T00:28:57;14.20;99.90
23283;DHT22;11810;51.178;3.878;2023-06-04T00:31:23;14.10;99.90
23283;DHT22;11810;51.178;3.878;2023-06-04T00:33:49;14.20;99.90
23283;DHT22;11810;51.178;3.878;2023-06-04T00:36:15;14.30;99.90
23283;DHT22;11810;51.178;3.878;2023-06-04T00:38:41;14.20;99.90
23283;DHT22;11810;51.178;3.878;2023-06-04T00:41:07;14.10;99.90
23283;DHT22;11810;51.178;3.878;2023-06-04T00:43:33;14.10;99.90
23283;DHT22;11810;51.178;3.878;2023-06-04T00:45:59;14.00;99.90
23283;DHT22;11810;51.178;3.878;2023-06-04T00:48:26;14.00;99.90
23283;DHT22;11810;51.178;3.878;2023-06-04T00:50:53;13.90;99.90
23283;DHT22;11810;51.178;3.878;2023-06-04T00:53:20;13.90;99.90
23283;DHT22;11810;51.178;3.878;2023-06-04T00:55:48;13.90;99.90
23283;DHT22;11810;51.178;3.878;2023-06-04T00:58:14;13.90;99.90
23283;DHT22;11810;51.178;3.878;2023-06-04T01:00:41;13.90;99.90
23283;DHT22;11810;51.178;3.878;2023-06-04T01:03:13;13.80;99.90
23283;DHT22;11810;51.178;3.878;2023-06-04T01:05:48;13.80;99.90
23283;DHT22;11810;51.178;3.878;2023-06-04T01:08:18;13.80;99.90
23283;DHT22;11810;51.178;3.878;2023-06-04T01:10:54;13.70;99.90
23283;DHT22;11810;51.178;3.878;2023-06-04T01:13:20;13.60;99.90
23283;DHT22;11810;51.178;3.878;2023-06-04T01:15:46;13.60;99.90
23283;DHT22;11810;51.178;3.878;2023-06-04T01:18:16;13.50;99.90
23283;DHT22;11810;51.178;3.878;2023-06-04T01:21:00;13.50;99.90
23283;DHT22;11810;51.178;3.878;2023-06-04T01:26:12;13.40;99.90
23283;DHT22;11810;51.178;3.878;2023-06-04T01:28:39;13.40;99.90
23283;DHT22;11810;51.178;3.878;2023-06-04T01:31:06;13.40;99.90
23283;DHT22;11810;51.178;3.878;2023-06-04T01:33:35;13.40;99.90
23283;DHT22;11810;51.178;3.878;2023-06-04T01:36:01;13.40;99.90
23283;DHT22;11810;51.178;3.878;2023-06-04T01:38:27;13.50;99.90
23283;DHT22;11810;51.178;3.878;2023-06-04T01:40:53;13.40;99.90
23283;DHT22;11810;51.178;3.878;2023-06-04T01:43:27;13.30;99.90
23283;DHT22;11810;51.178;3.878;2023-06-04T01:45:53;13.30;99.90
23283;DHT22;11810;51.178;3.878;2023-06-04T01:48:20;13.30;99.90
23283;DHT22;11810;51.178;3.878;2023-06-04T01:50:46;13.20;99.90
23283;DHT22;11810;51.178;3.878;2023-06-04T01:53:12;13.00;99.90
23283;DHT22;11810;51.178;3.878;2023-06-04T01:55:38;13.00;99.90
23283;DHT22;11810;51.178;3.878;2023-06-04T01:58:04;12.90;99.90
23283;DHT22;11810;51.178;3.878;2023-06-04T02:00:30;12.90;99.90
23283;DHT22;11810;51.178;3.878;2023-06-04T02:02:56;12.80;99.90
23283;DHT22;11810;51.178;3.878;2023-06-04T02:05:22;12.80;99.90
23283;DHT22;11810;51.178;3.878;2023-06-04T02:07:48;12.80;99.90
23283;DHT22;11810;51.178;3.878;2023-06-04T02:10:15;12.70;99.90
23283;DHT22;11810;51.178;3.878;2023-06-04T02:13:10;12.70;99.90
23283;DHT22;11810;51.178;3.878;2023-06-04T02:15:36;12.70;99.90
23283;DHT22;11810;51.178;3.878;2023-06-04T02:20:44;12.60;99.90
23283;DHT22;11810;51.178;3.878;2023-06-04T02:23:11;12.60;99.90
23283;DHT22;11810;51.178;3.878;2023-06-04T02:25:37;12.50;99.90
23283;DHT22;11810;51.178;3.878;2023-06-04T02:28:03;12.60;99.90
23283;DHT22;11810;51.178;3.878;2023-06-04T02:30:30;12.70;99.90
23283;DHT22;11810;51.178;3.878;2023-06-04T02:32:55;12.60;99.90
23283;DHT22;11810;51.178;3.878;2023-06-04T02:35:22;12.50;99.90
23283;DHT22;11810;51.178;3.878;2023-06-04T02:37:49;12.50;99.90
23283;DHT22;11810;51.178;3.878;2023-06-04T02:40:16;12.50;99.90
23283;DHT22;11810;51.178;3.878;2023-06-04T02:42:42;12.60;99.90
23283;DHT22;11810;51.178;3.878;2023-06-04T02:45:10;12.50;99.90
23283;DHT22;11810;51.178;3.878;2023-06-04T02:47:36;12.60;99.90
23283;DHT22;11810;51.178;3.878;2023-06-04T02:50:02;12.60;99.90
23283;DHT22;11810;51.178;3.878;2023-06-04T02:52:29;12.50;99.90
23283;DHT22;11810;51.178;3.878;2023-06-04T02:54:56;12.50;99.90
23283;DHT22;11810;51.178;3.878;2023-06-04T02:57:22;12.50;99.90
23283;DHT22;11810;51.178;3.878;2023-06-04T02:59:48;12.40;99.90
23283;DHT22;11810;51.178;3.878;2023-06-04T03:02:14;12.40;99.90
23283;DHT22;11810;51.178;3.878;2023-06-04T03:04:41;12.50;99.90
23283;DHT22;11810;51.178;3.878;2023-06-04T03:07:09;12.50;99.90
23283;DHT22;11810;51.178;3.878;2023-06-04T03:09:37;12.50;99.90
23283;DHT22;11810;51.178;3.878;2023-06-04T03:12:03;12.40;99.90
23283;DHT22;11810;51.178;3.878;2023-06-04T03:14:30;12.30;99.90
23283;DHT22;11810;51.178;3.878;2023-06-04T03:17:00;12.20;99.90
23283;DHT22;11810;51.178;3.878;2023-06-04T03:19:37;12.30;99.90
23283;DHT22;11810;51.178;3.878;2023-06-04T03:22:04;12.40;99.90
23283;DHT22;11810;51.178;3.878;2023-06-04T03:24:34;12.30;99.90
23283;DHT22;11810;51.178;3.878;2023-06-04T03:27:02;12.20;99.90
23283;DHT22;11810;51.178;3.878;2023-06-04T03:29:29;12.20;99.90
23283;DHT22;11810;51.178;3.878;2023-06-04T03:31:56;12.10;99.90
23283;DHT22;11810;51.178;3.878;2023-06-04T03:34:22;12.10;99.90
23283;DHT22;11810;51.178;3.878;2023-06-04T03:36:54;12.00;99.90
23283;DHT22;11810;51.178;3.878;2023-06-04T03:39:21;12.10;99.90
23283;DHT22;11810;51.178;3.878;2023-06-04T03:41:47;12.20;99.90
23283;DHT22;11810;51.178;3.878;2023-06-04T03:44:17;12.10;99.90
23283;DHT22;11810;51.178;3.878;2023-06-04T03:46:44;12.00;99.90
23283;DHT22;11810;51.178;3.878;2023-06-04T03:49:11;12.00;99.90
23283;DHT22;11810;51.178;3.878;2023-06-04T03:51:41;12.00;99.90
23283;DHT22;11810;51.178;3.878;2023-06-04T03:54:07;11.90;99.90
23283;DHT22;11810;51.178;3.878;2023-06-04T03:56:33;11.90;99.90
23283;DHT22;11810;51.178;3.878;2023-06-04T03:58:59;12.00;99.90
23283;DHT22;11810;51.178;3.878;2023-06-04T04:01:26;11.90;99.90
23283;DHT22;11810;51.178;3.878;2023-06-04T04:03:52;11.90;99.90
23283;DHT22;11810;51.178;3.878;2023-06-04T04:06:19;11.80;99.90
23283;DHT22;11810;51.178;3.878;2023-06-04T04:08:45;11.90;99.90
23283;DHT22;11810;51.178;3.878;2023-06-04T04:11:15;11.90;99.90
23283;DHT22;11810;51.178;3.878;2023-06-04T04:13:41;11.90;99.90
23283;DHT22;11810;51.178;3.878;2023-06-04T04:16:07;12.00;99.90
23283;DHT22;11810;51.178;3.878;2023-06-04T04:18:34;11.90;99.90
23283;DHT22;11810;51.178;3.878;2023-06-04T04:21:00;12.00;99.90
23283;DHT22;11810;51.178;3.878;2023-06-04T04:23:29;12.00;99.90
23283;DHT22;11810;51.178;3.878;2023-06-04T04:25:58;12.10;99.90
23283;DHT22;11810;51.178;3.878;2023-06-04T04:28:24;12.20;99.90
23283;DHT22;11810;51.178;3.878;2023-06-04T04:30:54;12.30;99.90
23283;DHT22;11810;51.178;3.878;2023-06-04T04:33:22;12.30;99.90
23283;DHT22;11810;51.178;3.878;2023-06-04T04:35:50;12.40;99.90
23283;DHT22;11810;51.178;3.878;2023-06-04T04:38:19;12.50;99.90
23283;DHT22;11810;51.178;3.878;2023-06-04T04:40:45;12.60;99.90
23283;DHT22;11810;51.178;3.878;2023-06-04T04:43:13;12.60;99.90
23283;DHT22;11810;51.178;3.878;2023-06-04T04:45:39;12.60;99.90
23283;DHT22;11810;51.178;3.878;2023-06-04T04:48:05;12.60;99.90
23283;DHT22;11810;51.178;3.878;2023-06-04T04:50:31;12.80;99.90
23283;DHT22;11810;51.178;3.878;2023-06-04T04:52:58;12.90;99.90
23283;DHT22;11810;51.178;3.878;2023-06-04T04:55:24;13.00;99.90
23283;DHT22;11810;51.178;3.878;2023-06-04T04:57:50;13.10;99.90
23283;DHT22;11810;51.178;3.878;2023-06-04T05:00:16;13.30;99.90
23283;DHT22;11810;51.178;3.878;2023-06-04T05:02:42;13.30;99.90
23283;DHT22;11810;51.178;3.878;2023-06-04T05:05:11;13.60;99.90
23283;DHT22;11810;51.178;3.878;2023-06-04T05:07:38;13.80;99.90
23283;DHT22;11810;51.178;3.878;2023-06-04T05:10:04;13.90;99.90
23283;DHT22;11810;51.178;3.878;2023-06-04T05:12:30;14.10;99.90
23283;DHT22;11810;51.178;3.878;2023-06-04T05:14:59;14.10;99.90
23283;DHT22;11810;51.178;3.878;2023-06-04T05:17:25;14.40;99.90
23283;DHT22;11810;51.178;3.878;2023-06-04T05:19:56;14.60;99.90
23283;DHT22;11810;51.178;3.878;2023-06-04T05:22:37;14.80;99.90
23283;DHT22;11810;51.178;3.878;2023-06-04T05:25:04;15.00;99.90
23283;DHT22;11810;51.178;3.878;2023-06-04T05:27:31;15.40;99.90
23283;DHT22;11810;51.178;3.878;2023-06-04T05:29:58;15.60;99.90
23283;DHT22;11810;51.178;3.878;2023-06-04T05:32:24;15.80;99.90
23283;DHT22;11810;51.178;3.878;2023-06-04T05:34:54;16.10;99.90
23283;DHT22;11810;51.178;3.878;2023-06-04T05:37:24;16.40;99.90
23283;DHT22;11810;51.178;3.878;2023-06-04T05:39:52;16.70;99.90
23283;DHT22;11810;51.178;3.878;2023-06-04T05:42:19;17.10;99.90
23283;DHT22;11810;51.178;3.878;2023-06-04T05:44:45;17.50;99.90
23283;DHT22;11810;51.178;3.878;2023-06-04T05:47:11;17.60;99.90
23283;DHT22;11810;51.178;3.878;2023-06-04T05:49:37;17.80;99.90
23283;DHT22;11810;51.178;3.878;2023-06-04T05:52:03;18.00;99.90
23283;DHT22;11810;51.178;3.878;2023-06-04T05:54:29;18.30;99.90
23283;DHT22;11810;51.178;3.878;2023-06-04T05:56:56;18.70;99.90
23283;DHT22;11810;51.178;3.878;2023-06-04T05:59:22;19.10;99.90
23283;DHT22;11810;51.178;3.878;2023-06-04T06:01:49;19.30;99.90
23283;DHT22;11810;51.178;3.878;2023-06-04T06:04:15;19.60;99.90
23283;DHT22;11810;51.178;3.878;2023-06-04T06:06:42;19.60;99.90
23283;DHT22;11810;51.178;3.878;2023-06-04T06:09:14;20.00;99.90
23283;DHT22;11810;51.178;3.878;2023-06-04T06:11:41;19.80;99.90
23283;DHT22;11810;51.178;3.878;2023-06-04T06:14:07;20.20;99.90
23283;DHT22;11810;51.178;3.878;2023-06-04T06:16:33;20.40;99.90
23283;DHT22;11810;51.178;3.878;2023-06-04T06:19:00;20.60;99.90
23283;DHT22;11810;51.178;3.878;2023-06-04T06:21:26;20.80;99.90
23283;DHT22;11810;51.178;3.878;2023-06-04T06:23:53;21.00;99.90
23283;DHT22;11810;51.178;3.878;2023-06-04T06:26:19;21.30;99.90
23283;DHT22;11810;51.178;3.878;2023-06-04T06:28:45;21.70;99.90
23283;DHT22;11810;51.178;3.878;2023-06-04T06:31:11;22.10;99.90
23283;DHT22;11810;51.178;3.878;2023-06-04T06:33:37;22.50;99.90
23283;DHT22;11810;51.178;3.878;2023-06-04T06:36:10;22.70;99.90
23283;DHT22;11810;51.178;3.878;2023-06-04T06:38:38;23.10;99.90
23283;DHT22;11810;51.178;3.878;2023-06-04T06:41:04;23.00;99.90
23283;DHT22;11810;51.178;3.878;2023-06-04T06:43:30;23.20;99.90
23283;DHT22;11810;51.178;3.878;2023-06-04T06:45:57;23.30;99.90
23283;DHT22;11810;51.178;3.878;2023-06-04T06:48:23;23.30;99.90
23283;DHT22;11810;51.178;3.878;2023-06-04T06:50:49;23.30;99.90
23283;DHT22;11810;51.178;3.878;2023-06-04T06:53:15;23.50;99.90
23283;DHT22;11810;51.178;3.878;2023-06-04T06:55:41;23.60;99.90
23283;DHT22;11810;51.178;3.878;2023-06-04T06:58:07;24.00;99.90
23283;DHT22;11810;51.178;3.878;2023-06-04T07:00:33;24.20;99.90
23283;DHT22;11810;51.178;3.878;2023-06-04T07:02:59;24.40;99.90
23283;DHT22;11810;51.178;3.878;2023-06-04T07:05:25;24.50;99.90
23283;DHT22;11810;51.178;3.878;2023-06-04T07:07:51;25.10;99.90
23283;DHT22;11810;51.178;3.878;2023-06-04T07:10:17;25.50;99.90
23283;DHT22;11810;51.178;3.878;2023-06-04T07:12:43;25.60;99.90
23283;DHT22;11810;51.178;3.878;2023-06-04T07:15:09;25.60;99.90
23283;DHT22;11810;51.178;3.878;2023-06-04T07:17:36;26.10;99.90
23283;DHT22;11810;51.178;3.878;2023-06-04T07:20:02;26.20;99.90
23283;DHT22;11810;51.178;3.878;2023-06-04T07:22:32;25.60;99.90
23283;DHT22;11810;51.178;3.878;2023-06-04T07:24:58;25.90;99.90
23283;DHT22;11810;51.178;3.878;2023-06-04T07:27:24;26.30;99.90
23283;DHT22;11810;51.178;3.878;2023-06-04T07:29:51;26.30;99.90
23283;DHT22;11810;51.178;3.878;2023-06-04T07:32:17;26.50;99.90
23283;DHT22;11810;51.178;3.878;2023-06-04T07:34:43;27.00;99.90
23283;DHT22;11810;51.178;3.878;2023-06-04T07:37:09;27.10;99.90
23283;DHT22;11810;51.178;3.878;2023-06-04T07:39:36;27.30;99.90
23283;DHT22;11810;51.178;3.878;2023-06-04T07:42:03;27.60;99.90
23283;DHT22;11810;51.178;3.878;2023-06-04T07:44:30;28.00;99.90
23283;DHT22;11810;51.178;3.878;2023-06-04T07:46:56;28.00;99.90
23283;DHT22;11810;51.178;3.878;2023-06-04T07:49:21;28.20;99.90
23283;DHT22;11810;51.178;3.878;2023-06-04T07:51:47;28.30;99.90
23283;DHT22;11810;51.178;3.878;2023-06-04T07:54:13;28.40;99.30
23283;DHT22;11810;51.178;3.878;2023-06-04T07:56:40;28.60;98.80
23283;DHT22;11810;51.178;3.878;2023-06-04T07:59:06;28.40;97.90
23283;DHT22;11810;51.178;3.878;2023-06-04T08:01:32;28.60;97.60
23283;DHT22;11810;51.178;3.878;2023-06-04T08:03:58;29.10;96.70
23283;DHT22;11810;51.178;3.878;2023-06-04T08:06:25;29.40;96.90
23283;DHT22;11810;51.178;3.878;2023-06-04T08:08:52;29.60;95.60
23283;DHT22;11810;51.178;3.878;2023-06-04T08:11:18;30.10;94.40
23283;DHT22;11810;51.178;3.878;2023-06-04T08:13:44;30.10;93.10
23283;DHT22;11810;51.178;3.878;2023-06-04T08:16:10;29.90;92.60
23283;DHT22;11810;51.178;3.878;2023-06-04T08:18:40;29.80;91.30
23283;DHT22;11810;51.178;3.878;2023-06-04T08:21:09;30.30;90.90
23283;DHT22;11810;51.178;3.878;2023-06-04T08:23:37;30.40;91.30
23283;DHT22;11810;51.178;3.878;2023-06-04T08:26:03;30.50;90.50
23283;DHT22;11810;51.178;3.878;2023-06-04T08:28:29;30.40;88.50
23283;DHT22;11810;51.178;3.878;2023-06-04T08:30:55;29.90;89.00
23283;DHT22;11810;51.178;3.878;2023-06-04T08:33:21;30.00;88.90
23283;DHT22;11810;51.178;3.878;2023-06-04T08:35:47;30.70;86.10
23283;DHT22;11810;51.178;3.878;2023-06-04T08:38:13;30.80;85.40
23283;DHT22;11810;51.178;3.878;2023-06-04T08:40:38;30.90;87.60
23283;DHT22;11810;51.178;3.878;2023-06-04T08:43:05;30.90;84.50
23283;DHT22;11810;51.178;3.878;2023-06-04T08:45:33;31.20;82.10
23283;DHT22;11810;51.178;3.878;2023-06-04T08:48:04;30.80;81.30
23283;DHT22;11810;51.178;3.878;2023-06-04T08:50:39;30.90;81.20
23283;DHT22;11810;51.178;3.878;2023-06-04T08:53:08;31.20;81.70
23283;DHT22;11810;51.178;3.878;2023-06-04T08:55:36;31.60;79.90
23283;DHT22;11810;51.178;3.878;2023-06-04T08:58:05;31.90;77.10
23283;DHT22;11810;51.178;3.878;2023-06-04T09:00:33;32.30;77.70
23283;DHT22;11810;51.178;3.878;2023-06-04T09:03:02;32.30;76.90
23283;DHT22;11810;51.178;3.878;2023-06-04T09:05:30;32.50;75.30
23283;DHT22;11810;51.178;3.878;2023-06-04T09:08:00;32.80;74.50
23283;DHT22;11810;51.178;3.878;2023-06-04T09:10:29;32.30;71.70
23283;DHT22;11810;51.178;3.878;2023-06-04T09:12:57;32.50;71.20
23283;DHT22;11810;51.178;3.878;2023-06-04T09:15:26;32.40;70.80
23283;DHT22;11810;51.178;3.878;2023-06-04T09:17:52;32.10;70.30
23283;DHT22;11810;51.178;3.878;2023-06-04T09:20:19;32.60;70.20
23283;DHT22;11810;51.178;3.878;2023-06-04T09:22:45;32.50;68.80
23283;DHT22;11810;51.178;3.878;2023-06-04T09:25:23;32.80;69.00
23283;DHT22;11810;51.178;3.878;2023-06-04T09:27:51;32.60;67.20
23283;DHT22;11810;51.178;3.878;2023-06-04T09:30:17;32.70;66.60
23283;DHT22;11810;51.178;3.878;2023-06-04T09:32:43;33.10;66.30
23283;DHT22;11810;51.178;3.878;2023-06-04T09:35:13;33.20;64.70
23283;DHT22;11810;51.178;3.878;2023-06-04T09:37:51;33.30;65.00
23283;DHT22;11810;51.178;3.878;2023-06-04T09:40:17;33.10;65.10
23283;DHT22;11810;51.178;3.878;2023-06-04T09:42:47;32.80;67.00
23283;DHT22;11810;51.178;3.878;2023-06-04T09:47:55;32.60;64.10
23283;DHT22;11810;51.178;3.878;2023-06-04T09:50:28;32.50;62.50
23283;DHT22;11810;51.178;3.878;2023-06-04T09:52:56;32.50;62.80
23283;DHT22;11810;51.178;3.878;2023-06-04T09:55:22;32.60;62.60
23283;DHT22;11810;51.178;3.878;2023-06-04T09:57:52;32.70;62.60
23283;DHT22;11810;51.178;3.878;2023-06-04T10:00:20;33.20;64.20
23283;DHT22;11810;51.178;3.878;2023-06-04T10:02:48;33.70;64.40
23283;DHT22;11810;51.178;3.878;2023-06-04T10:05:15;34.20;65.20
23283;DHT22;11810;51.178;3.878;2023-06-04T10:07:45;33.80;63.20
23283;DHT22;11810;51.178;3.878;2023-06-04T10:10:16;33.60;65.00
23283;DHT22;11810;51.178;3.878;2023-06-04T10:12:42;33.80;63.20
23283;DHT22;11810;51.178;3.878;2023-06-04T10:15:13;33.60;64.30
23283;DHT22;11810;51.178;3.878;2023-06-04T10:17:39;34.10;63.10
23283;DHT22;11810;51.178;3.878;2023-06-04T10:20:10;34.30;62.20
23283;DHT22;11810;51.178;3.878;2023-06-04T10:22:37;34.50;62.50
23283;DHT22;11810;51.178;3.878;2023-06-04T10:25:04;34.30;62.30
23283;DHT22;11810;51.178;3.878;2023-06-04T10:27:33;34.10;62.80
23283;DHT22;11810;51.178;3.878;2023-06-04T10:30:04;34.10;62.70
23283;DHT22;11810;51.178;3.878;2023-06-04T10:32:30;34.00;62.50
23283;DHT22;11810;51.178;3.878;2023-06-04T10:34:57;33.70;62.50
23283;DHT22;11810;51.178;3.878;2023-06-04T10:37:25;33.30;63.00
23283;DHT22;11810;51.178;3.878;2023-06-04T10:39:55;33.80;62.50
23283;DHT22;11810;51.178;3.878;2023-06-04T10:42:22;34.10;60.90
23283;DHT22;11810;51.178;3.878;2023-06-04T10:44:52;33.60;60.20
23283;DHT22;11810;51.178;3.878;2023-06-04T10:47:23;33.40;61.30
23283;DHT22;11810;51.178;3.878;2023-06-04T10:49:52;33.40;59.00
23283;DHT22;11810;51.178;3.878;2023-06-04T10:52:18;33.50;58.10
23283;DHT22;11810;51.178;3.878;2023-06-04T10:54:45;33.60;58.80
23283;DHT22;11810;51.178;3.878;2023-06-04T10:57:17;33.60;57.20
23283;DHT22;11810;51.178;3.878;2023-06-04T10:59:56;33.60;57.50
23283;DHT22;11810;51.178;3.878;2023-06-04T11:02:23;34.00;57.90
23283;DHT22;11810;51.178;3.878;2023-06-04T11:05:02;34.10;56.20
23283;DHT22;11810;51.178;3.878;2023-06-04T11:07:45;34.20;55.50
23283;DHT22;11810;51.178;3.878;2023-06-04T11:10:12;34.90;57.00
23283;DHT22;11810;51.178;3.878;2023-06-04T11:12:45;34.90;55.00
23283;DHT22;11810;51.178;3.878;2023-06-04T11:15:12;34.60;54.30
23283;DHT22;11810;51.178;3.878;2023-06-04T11:17:38;34.30;54.60
23283;DHT22;11810;51.178;3.878;2023-06-04T11:20:04;34.00;54.00
23283;DHT22;11810;51.178;3.878;2023-06-04T11:22:32;33.40;55.90
23283;DHT22;11810;51.178;3.878;2023-06-04T11:24:59;33.70;54.90
23283;DHT22;11810;51.178;3.878;2023-06-04T11:27:25;34.00;54.20
23283;DHT22;11810;51.178;3.878;2023-06-04T11:29:52;33.80;55.50
23283;DHT22;11810;51.178;3.878;2023-06-04T11:32:22;33.70;54.90
23283;DHT22;11810;51.178;3.878;2023-06-04T11:34:48;33.40;54.40
23283;DHT22;11810;51.178;3.878;2023-06-04T11:37:15;33.40;56.40
23283;DHT22;11810;51.178;3.878;2023-06-04T11:39:40;33.30;56.80
23283;DHT22;11810;51.178;3.878;2023-06-04T11:42:09;34.20;57.00
23283;DHT22;11810;51.178;3.878;2023-06-04T11:44:36;34.20;55.70
23283;DHT22;11810;51.178;3.878;2023-06-04T11:47:06;34.60;55.40
23283;DHT22;11810;51.178;3.878;2023-06-04T11:49:34;34.80;54.20
23283;DHT22;11810;51.178;3.878;2023-06-04T11:52:01;34.90;55.50
23283;DHT22;11810;51.178;3.878;2023-06-04T11:54:27;35.20;53.70
23283;DHT22;11810;51.178;3.878;2023-06-04T11:56:54;34.70;55.40
23283;DHT22;11810;51.178;3.878;2023-06-04T11:59:20;34.90;54.70
23283;DHT22;11810;51.178;3.878;2023-06-04T12:01:47;35.10;54.50
23283;DHT22;11810;51.178;3.878;2023-06-04T12:04:15;35.80;54.80
23283;DHT22;11810;51.178;3.878;2023-06-04T12:06:58;35.10;52.10
23283;DHT22;11810;51.178;3.878;2023-06-04T12:09:27;34.80;52.80
23283;DHT22;11810;51.178;3.878;2023-06-04T12:12:01;34.80;53.40
23283;DHT22;11810;51.178;3.878;2023-06-04T12:14:27;35.00;54.40
23283;DHT22;11810;51.178;3.878;2023-06-04T12:17:01;35.10;54.80
23283;DHT22;11810;51.178;3.878;2023-06-04T12:19:27;35.10;54.30
23283;DHT22;11810;51.178;3.878;2023-06-04T12:22:04;35.40;54.50
23283;DHT22;11810;51.178;3.878;2023-06-04T12:24:31;35.10;54.70
23283;DHT22;11810;51.178;3.878;2023-06-04T12:29:28;34.90;54.40
23283;DHT22;11810;51.178;3.878;2023-06-04T12:32:06;34.70;55.40
23283;DHT22;11810;51.178;3.878;2023-06-04T12:34:39;34.20;54.40
23283;DHT22;11810;51.178;3.878;2023-06-04T12:37:06;34.30;54.90
23283;DHT22;11810;51.178;3.878;2023-06-04T12:39:36;33.90;54.80
23283;DHT22;11810;51.178;3.878;2023-06-04T12:42:06;33.70;55.50
23283;DHT22;11810;51.178;3.878;2023-06-04T12:44:37;33.60;55.50
23283;DHT22;11810;51.178;3.878;2023-06-04T12:47:03;33.50;55.90
23283;DHT22;11810;51.178;3.878;2023-06-04T12:49:29;33.80;55.50
23283;DHT22;11810;51.178;3.878;2023-06-04T12:51:55;33.80;56.70
23283;DHT22;11810;51.178;3.878;2023-06-04T12:54:21;33.70;55.90
23283;DHT22;11810;51.178;3.878;2023-06-04T12:56:48;33.60;55.70
23283;DHT22;11810;51.178;3.878;2023-06-04T12:59:14;33.40;55.60
23283;DHT22;11810;51.178;3.878;2023-06-04T13:01:40;32.80;56.50
23283;DHT22;11810;51.178;3.878;2023-06-04T13:04:07;32.70;56.50
23283;DHT22;11810;51.178;3.878;2023-06-04T13:06:34;32.30;56.30
23283;DHT22;11810;51.178;3.878;2023-06-04T13:09:02;32.40;56.90
23283;DHT22;11810;51.178;3.878;2023-06-04T13:11:29;32.30;57.70
23283;DHT22;11810;51.178;3.878;2023-06-04T13:13:54;32.70;57.20
23283;DHT22;11810;51.178;3.878;2023-06-04T13:16:20;32.70;57.10
23283;DHT22;11810;51.178;3.878;2023-06-04T13:18:46;32.50;57.10
23283;DHT22;11810;51.178;3.878;2023-06-04T13:21:12;32.30;56.90
23283;DHT22;11810;51.178;3.878;2023-06-04T13:23:38;32.20;56.90
23283;DHT22;11810;51.178;3.878;2023-06-04T13:26:04;32.20;57.50
23283;DHT22;11810;51.178;3.878;2023-06-04T13:28:30;32.90;57.40
23283;DHT22;11810;51.178;3.878;2023-06-04T13:30:56;32.70;57.50
23283;DHT22;11810;51.178;3.878;2023-06-04T13:33:22;32.70;58.10
23283;DHT22;11810;51.178;3.878;2023-06-04T13:35:48;32.30;57.70
23283;DHT22;11810;51.178;3.878;2023-06-04T13:38:15;31.60;58.60
23283;DHT22;11810;51.178;3.878;2023-06-04T13:40:42;31.70;58.90
23283;DHT22;11810;51.178;3.878;2023-06-04T13:43:08;31.60;59.90
23283;DHT22;11810;51.178;3.878;2023-06-04T13:45:34;31.20;59.00
23283;DHT22;11810;51.178;3.878;2023-06-04T13:48:00;31.20;59.80
23283;DHT22;11810;51.178;3.878;2023-06-04T13:50:31;31.10;59.50
23283;DHT22;11810;51.178;3.878;2023-06-04T13:52:57;31.40;59.20
23283;DHT22;11810;51.178;3.878;2023-06-04T13:55:23;31.70;59.50
23283;DHT22;11810;51.178;3.878;2023-06-04T13:57:49;31.40;59.70
23283;DHT22;11810;51.178;3.878;2023-06-04T14:00:15;31.40;58.40
23283;DHT22;11810;51.178;3.878;2023-06-04T14:02:41;31.40;58.70
23283;DHT22;11810;51.178;3.878;2023-06-04T14:05:07;30.80;59.80
23283;DHT22;11810;51.178;3.878;2023-06-04T14:07:33;30.70;60.60
23283;DHT22;11810;51.178;3.878;2023-06-04T14:09:59;30.70;61.10
23283;DHT22;11810;51.178;3.878;2023-06-04T14:12:25;30.50;60.40
23283;DHT22;11810;51.178;3.878;2023-06-04T14:14:51;30.40;60.30
23283;DHT22;11810;51.178;3.878;2023-06-04T14:17:17;30.30;60.20
23283;DHT22;11810;51.178;3.878;2023-06-04T14:19:43;29.80;59.90
23283;DHT22;11810;51.178;3.878;2023-06-04T14:22:12;29.80;59.50
23283;DHT22;11810;51.178;3.878;2023-06-04T14:24:40;29.70;61.20
23283;DHT22;11810;51.178;3.878;2023-06-04T14:27:07;29.90;60.20
23283;DHT22;11810;51.178;3.878;2023-06-04T14:29:35;29.90;61.10
23283;DHT22;11810;51.178;3.878;2023-06-04T14:32:02;30.10;61.20
23283;DHT22;11810;51.178;3.878;2023-06-04T14:34:28;30.10;61.70
23283;DHT22;11810;51.178;3.878;2023-06-04T14:36:54;29.80;61.30
23283;DHT22;11810;51.178;3.878;2023-06-04T14:39:20;29.70;61.80
23283;DHT22;11810;51.178;3.878;2023-06-04T14:41:46;29.50;61.10
23283;DHT22;11810;51.178;3.878;2023-06-04T14:44:12;29.80;61.20
23283;DHT22;11810;51.178;3.878;2023-06-04T14:46:39;30.10;60.30
23283;DHT22;11810;51.178;3.878;2023-06-04T14:49:05;30.00;62.00
23283;DHT22;11810;51.178;3.878;2023-06-04T14:51:31;30.10;62.00
23283;DHT22;11810;51.178;3.878;2023-06-04T14:53:57;30.30;61.00
23283;DHT22;11810;51.178;3.878;2023-06-04T14:56:23;29.80;60.50
23283;DHT22;11810;51.178;3.878;2023-06-04T14:58:49;29.50;60.40
23283;DHT22;11810;51.178;3.878;2023-06-04T15:01:15;29.10;61.70
23283;DHT22;11810;51.178;3.878;2023-06-04T15:03:41;29.10;63.50
23283;DHT22;11810;51.178;3.878;2023-06-04T15:06:07;28.80;66.50
23283;DHT22;11810;51.178;3.878;2023-06-04T15:08:33;28.60;67.70
23283;DHT22;11810;51.178;3.878;2023-06-04T15:10:59;28.40;67.30
23283;DHT22;11810;51.178;3.878;2023-06-04T15:13:25;28.20;68.30
23283;DHT22;11810;51.178;3.878;2023-06-04T15:15:51;28.20;69.60
23283;DHT22;11810;51.178;3.878;2023-06-04T15:18:17;27.80;70.60
23283;DHT22;11810;51.178;3.878;2023-06-04T15:20:43;27.80;72.20
23283;DHT22;11810;51.178;3.878;2023-06-04T15:23:09;27.80;72.80
23283;DHT22;11810;51.178;3.878;2023-06-04T15:25:35;27.50;72.90
23283;DHT22;11810;51.178;3.878;2023-06-04T15:28:04;27.30;73.80
23283;DHT22;11810;51.178;3.878;2023-06-04T15:30:31;26.80;75.80
23283;DHT22;11810;51.178;3.878;2023-06-04T15:32:56;26.60;76.90
23283;DHT22;11810;51.178;3.878;2023-06-04T15:35:26;26.60;77.60
23283;DHT22;11810;51.178;3.878;2023-06-04T15:37:52;26.30;77.40
23283;DHT22;11810;51.178;3.878;2023-06-04T15:40:18;26.10;78.80
23283;DHT22;11810;51.178;3.878;2023-06-04T15:42:44;25.80;79.20